createdAt,value
2022-09-02T00:01:23.908Z,35.50
2022-09-02T00:03:51.032Z,35.60
2022-09-02T00:06:17.668Z,35.80
2022-09-02T00:08:44.446Z,36.10
2022-09-02T00:11:14.332Z,36.30
2022-09-02T00:13:41.999Z,36.20
2022-09-02T00:16:10.869Z,36.10
2022-09-02T00:18:37.863Z,36.20
2022-09-02T00:21:04.543Z,36.30
2022-09-02T00:23:31.479Z,36.30
2022-09-02T00:25:58.275Z,36.80
2022-09-02T00:28:24.889Z,36.50
2022-09-02T00:30:51.822Z,36.80
2022-09-02T00:33:18.480Z,37.20
2022-09-02T00:35:45.169Z,37.50
2022-09-02T00:38:11.934Z,36.90
2022-09-02T00:40:39.444Z,37.10
2022-09-02T00:43:08.378Z,37.10
2022-09-02T00:45:36.069Z,36.80
2022-09-02T00:48:02.817Z,37.10
2022-09-02T00:50:31.255Z,36.90
2022-09-02T00:53:05.054Z,37.10
2022-09-02T00:55:40.780Z,37.10
2022-09-02T00:58:13.364Z,37.40
2022-09-02T01:00:42.411Z,37.60
2022-09-02T01:03:11.542Z,37.40
2022-09-02T01:05:44.634Z,37.30
2022-09-02T01:08:13.399Z,37.60
2022-09-02T01:10:40.993Z,37.30
2022-09-02T01:13:10.443Z,37.30
2022-09-02T01:15:39.882Z,37.30
2022-09-02T01:18:07.700Z,37.20
2022-09-02T01:20:34.376Z,37.10
2022-09-02T01:23:02.242Z,37.20
2022-09-02T01:25:31.008Z,37.30
2022-09-02T01:28:07.341Z,37.20
2022-09-02T01:30:34.319Z,37.20
2022-09-02T01:33:00.951Z,37.10
2022-09-02T01:35:27.837Z,37.10
2022-09-02T01:37:56.011Z,37.10
2022-09-02T01:40:23.234Z,37.30
2022-09-02T01:42:49.908Z,37.30
2022-09-02T01:45:16.565Z,37.30
2022-09-02T01:47:43.202Z,37.30
2022-09-02T01:50:12.340Z,37.30
2022-09-02T01:52:39.012Z,37.20
2022-09-02T01:55:05.900Z,37.10
2022-09-02T01:57:32.583Z,37.80
2022-09-02T02:00:01.267Z,37.50
2022-09-02T02:02:28.514Z,37.40
2022-09-02T02:04:55.208Z,37.60
2022-09-02T02:07:22.626Z,37.90
2022-09-02T02:09:49.314Z,38.00
2022-09-02T02:12:17.817Z,37.90
2022-09-02T02:14:44.489Z,38.00
2022-09-02T02:17:11.170Z,38.00
2022-09-02T02:19:38.247Z,38.10
2022-09-02T02:22:04.986Z,38.20
2022-09-02T02:24:31.641Z,37.90
2022-09-02T02:26:58.274Z,37.80
2022-09-02T02:29:24.906Z,38.10
2022-09-02T02:31:51.604Z,38.00
2022-09-02T02:34:18.304Z,37.90
2022-09-02T02:36:45.004Z,38.20
2022-09-02T02:39:11.855Z,38.20
2022-09-02T02:41:39.005Z,38.40
2022-09-02T02:44:05.672Z,38.80
2022-09-02T02:46:33.446Z,39.20
2022-09-02T02:49:00.238Z,38.60
2022-09-02T02:51:26.915Z,38.60
2022-09-02T02:53:56.889Z,39.00
2022-09-02T02:56:25.444Z,39.00
2022-09-02T02:58:52.100Z,39.60
2022-09-02T03:01:18.806Z,39.60
2022-09-02T03:03:45.652Z,39.80
2022-09-02T03:06:12.346Z,39.60
2022-09-02T03:08:39.012Z,39.70
2022-09-02T03:11:06.977Z,39.90
2022-09-02T03:13:34.874Z,40.00
2022-09-02T03:16:01.874Z,39.50
2022-09-02T03:18:28.579Z,39.60
2022-09-02T03:20:55.587Z,39.40
2022-09-02T03:23:22.348Z,39.60
2022-09-02T03:25:49.105Z,39.40
2022-09-02T03:28:15.926Z,40.00
2022-09-02T03:30:42.690Z,39.60
2022-09-02T03:33:09.384Z,39.50
2022-09-02T03:35:40.366Z,39.50
2022-09-02T03:38:07.426Z,39.60
2022-09-02T03:40:34.177Z,39.60
2022-09-02T03:43:00.964Z,39.50
2022-09-02T03:45:28.023Z,39.40
2022-09-02T03:47:54.639Z,39.40
2022-09-02T03:50:30.093Z,39.60
2022-09-02T03:52:56.975Z,39.60
2022-09-02T03:55:24.309Z,39.50
2022-09-02T03:57:50.950Z,39.70
2022-09-02T04:00:20.110Z,39.50
2022-09-02T04:02:49.905Z,39.60
2022-09-02T04:05:17.226Z,39.60
2022-09-02T04:07:46.976Z,39.80
2022-09-02T04:10:14.186Z,39.80
2022-09-02T04:12:40.897Z,40.10
2022-09-02T04:15:08.601Z,39.80
2022-09-02T04:17:39.159Z,39.90
2022-09-02T04:20:07.010Z,40.30
2022-09-02T04:22:33.834Z,40.30
2022-09-02T04:25:00.607Z,40.20
2022-09-02T04:27:27.227Z,40.10
2022-09-02T04:29:53.928Z,40.10
2022-09-02T04:32:21.698Z,40.00
2022-09-02T04:34:49.932Z,40.40
2022-09-02T04:37:16.698Z,40.60
2022-09-02T04:39:43.346Z,40.20
2022-09-02T04:42:09.997Z,40.20
2022-09-02T04:44:36.607Z,40.70
2022-09-02T04:47:03.238Z,41.20
2022-09-02T04:49:32.097Z,41.00
2022-09-02T04:51:59.573Z,41.30
2022-09-02T04:54:26.241Z,41.30
2022-09-02T04:56:52.887Z,41.30
2022-09-02T04:59:21.160Z,41.30
2022-09-02T05:01:48.036Z,41.80
2022-09-02T05:04:14.813Z,41.80
2022-09-02T05:06:44.280Z,41.50
2022-09-02T05:09:11.093Z,41.30
2022-09-02T05:11:38.774Z,41.90
2022-09-02T05:14:06.661Z,41.70
2022-09-02T05:16:36.717Z,41.90
2022-09-02T05:19:04.726Z,41.90
2022-09-02T05:21:32.055Z,42.10
2022-09-02T05:24:00.930Z,41.80
2022-09-02T05:26:27.866Z,42.00
2022-09-02T05:28:54.481Z,42.30
2022-09-02T05:31:21.532Z,42.00
2022-09-02T05:33:48.745Z,41.90
2022-09-02T05:36:18.232Z,41.70
2022-09-02T05:38:45.065Z,42.60
2022-09-02T05:41:14.570Z,42.20
2022-09-02T05:43:42.114Z,42.30
2022-09-02T05:46:09.801Z,42.20
2022-09-02T05:48:55.763Z,42.00
2022-09-02T05:51:22.850Z,42.30
2022-09-02T05:53:53.384Z,41.90
2022-09-02T05:56:21.580Z,41.80
2022-09-02T05:58:48.336Z,42.00
2022-09-02T06:01:15.781Z,42.30
2022-09-02T06:03:42.580Z,42.40
2022-09-02T06:06:09.307Z,42.10
2022-09-02T06:08:35.972Z,42.10
2022-09-02T06:11:03.219Z,42.00
2022-09-02T06:13:30.604Z,41.80
2022-09-02T06:15:58.324Z,42.80
2022-09-02T06:18:25.029Z,42.00
2022-09-02T06:20:53.301Z,42.10
2022-09-02T06:23:20.053Z,42.20
2022-09-02T06:25:47.666Z,42.10
2022-09-02T06:28:14.692Z,42.10
2022-09-02T06:30:44.931Z,42.00
2022-09-02T06:33:11.711Z,42.10
2022-09-02T06:35:42.462Z,42.50
2022-09-02T06:38:11.078Z,42.50
2022-09-02T06:40:45.451Z,42.70
2022-09-02T06:43:12.139Z,43.10
2022-09-02T06:45:42.626Z,43.20
2022-09-02T06:48:09.838Z,43.50
2022-09-02T06:50:44.148Z,43.40
2022-09-02T06:53:11.765Z,43.20
2022-09-02T06:55:39.443Z,42.50
2022-09-02T06:58:06.100Z,42.30
2022-09-02T07:00:35.350Z,42.00
2022-09-02T07:03:21.205Z,41.50
2022-09-02T07:05:47.843Z,40.90
2022-09-02T07:08:14.500Z,40.70
2022-09-02T07:10:41.163Z,40.60
2022-09-02T07:13:08.336Z,40.70
2022-09-02T07:15:35.115Z,40.50
2022-09-02T07:18:01.835Z,40.20
2022-09-02T07:20:28.663Z,39.60
2022-09-02T07:22:56.185Z,39.20
2022-09-02T07:25:22.942Z,39.30
2022-09-02T07:27:51.306Z,39.40
2022-09-02T07:30:18.199Z,38.80
2022-09-02T07:32:44.841Z,39.20
2022-09-02T07:35:11.489Z,37.80
2022-09-02T07:37:38.433Z,37.80
2022-09-02T07:40:06.436Z,36.50
2022-09-02T07:42:33.098Z,36.40
2022-09-02T07:44:59.765Z,36.10
2022-09-02T07:47:26.406Z,36.40
2022-09-02T07:52:39.944Z,34.90
2022-09-02T07:55:14.001Z,34.40
2022-09-02T07:57:41.467Z,33.80
2022-09-02T08:00:08.788Z,33.20
2022-09-02T08:02:35.502Z,32.40
2022-09-02T08:05:02.497Z,33.30
2022-09-02T08:07:29.177Z,32.50
2022-09-02T08:09:55.832Z,31.90
2022-09-02T08:12:22.654Z,31.80
2022-09-02T08:14:49.378Z,31.10
2022-09-02T08:17:16.262Z,31.30
2022-09-02T08:19:45.065Z,31.10
2022-09-02T08:22:11.705Z,30.90
2022-09-02T08:24:39.128Z,30.10
2022-09-02T08:27:05.807Z,29.40
2022-09-02T08:29:32.432Z,30.00
2022-09-02T08:31:59.139Z,29.70
2022-09-02T08:34:25.829Z,29.00
2022-09-02T08:36:56.241Z,27.80
2022-09-02T08:42:16.146Z,26.80
2022-09-02T08:44:42.778Z,27.50
2022-09-02T08:47:13.088Z,27.00
2022-09-02T08:50:00.324Z,26.40
2022-09-02T08:52:48.044Z,26.00
2022-09-02T08:55:19.176Z,26.30
2022-09-02T08:57:46.070Z,25.30
2022-09-02T09:00:13.355Z,24.50
2022-09-02T09:03:00.226Z,23.20
2022-09-02T09:05:52.111Z,23.50
2022-09-02T09:08:25.090Z,23.30
2022-09-02T09:11:15.573Z,23.80
2022-09-02T09:13:47.537Z,23.60
2022-09-02T09:16:26.842Z,23.30
2022-09-02T09:19:14.558Z,22.60
2022-09-02T09:21:41.573Z,20.90
2022-09-02T09:24:16.713Z,21.80
2022-09-02T09:26:43.393Z,22.10
2022-09-02T09:29:10.039Z,20.40
2022-09-02T09:31:37.198Z,20.60
2022-09-02T09:34:05.691Z,21.10
2022-09-02T09:36:41.415Z,19.90
2022-09-02T09:39:27.032Z,19.90
2022-09-02T09:42:04.364Z,19.50
2022-09-02T09:44:34.775Z,19.00
2022-09-02T09:47:02.329Z,19.10
2022-09-02T09:49:31.796Z,18.20
2022-09-02T09:51:58.608Z,18.20
2022-09-02T09:54:26.201Z,18.20
2022-09-02T09:56:53.060Z,16.70
2022-09-02T09:59:47.091Z,16.40
2022-09-02T10:02:25.232Z,16.80
2022-09-02T10:05:10.447Z,15.80
2022-09-02T10:07:41.739Z,15.70
2022-09-02T10:10:22.867Z,16.00
2022-09-02T10:12:50.972Z,15.60
2022-09-02T10:15:24.366Z,15.80
2022-09-02T10:17:56.780Z,16.30
2022-09-02T10:21:15.809Z,16.20
2022-09-02T10:24:20.315Z,16.50
2022-09-02T10:26:49.073Z,16.50
2022-09-02T10:29:37.247Z,15.70
2022-09-02T10:32:12.893Z,16.30
2022-09-02T10:34:57.260Z,16.30
2022-09-02T10:37:24.640Z,15.80
2022-09-02T10:40:11.874Z,15.90
2022-09-02T10:43:02.601Z,16.70
2022-09-02T10:45:43.966Z,16.60
2022-09-02T10:48:31.313Z,16.40
2022-09-02T10:51:13.673Z,15.40
2022-09-02T10:53:43.707Z,16.00
2022-09-02T10:56:21.437Z,15.30
2022-09-02T10:59:07.936Z,14.80
2022-09-02T11:01:37.863Z,14.00
2022-09-02T11:04:14.186Z,13.80
2022-09-02T11:07:01.360Z,13.50
2022-09-02T11:09:40.567Z,13.30
2022-09-02T11:12:28.237Z,13.80
2022-09-02T11:15:11.745Z,13.80
2022-09-02T11:17:49.287Z,13.60
2022-09-02T11:20:27.337Z,13.60
2022-09-02T11:22:59.855Z,14.00
2022-09-02T11:25:37.305Z,14.40
2022-09-02T11:28:34.079Z,14.20
2022-09-02T11:31:12.374Z,14.60
2022-09-02T11:33:55.535Z,14.30
2022-09-02T11:36:22.573Z,14.30
2022-09-02T11:38:58.511Z,14.30
2022-09-02T11:41:50.672Z,14.90
2022-09-02T11:44:36.027Z,14.50
2022-09-02T11:47:34.502Z,13.90
2022-09-02T11:50:20.184Z,14.30
2022-09-02T11:53:02.236Z,13.40
2022-09-02T11:55:37.301Z,13.70
2022-09-02T11:58:05.259Z,13.90
2022-09-02T12:00:55.611Z,12.40
2022-09-02T12:03:42.962Z,13.30
2022-09-02T12:06:19.231Z,12.50
2022-09-02T12:08:46.858Z,12.50
2022-09-02T12:11:37.847Z,12.30
2022-09-02T12:14:08.036Z,12.90
2022-09-02T12:17:03.633Z,12.50
2022-09-02T12:19:49.902Z,12.10
2022-09-02T12:22:16.588Z,12.70
2022-09-02T12:24:56.547Z,12.30
2022-09-02T12:27:30.314Z,12.40
2022-09-02T12:29:58.800Z,11.40
2022-09-02T12:32:48.757Z,11.60
2022-09-02T12:35:40.504Z,12.10
2022-09-02T12:38:10.034Z,12.00
2022-09-02T12:40:42.164Z,12.20
2022-09-02T12:43:31.000Z,11.70
2022-09-02T12:46:02.117Z,12.00
2022-09-02T12:48:38.605Z,11.40
2022-09-02T12:51:05.528Z,11.20
2022-09-02T12:53:40.711Z,11.30
2022-09-02T12:56:13.439Z,11.50
2022-09-02T12:58:48.307Z,11.40
2022-09-02T13:01:26.458Z,11.20
2022-09-02T13:03:53.169Z,11.20
2022-09-02T13:06:34.812Z,11.50
2022-09-02T13:09:10.355Z,11.40
2022-09-02T13:12:14.888Z,11.00
2022-09-02T13:14:47.478Z,11.00
2022-09-02T13:17:36.963Z,11.10
2022-09-02T13:20:24.224Z,11.30
2022-09-02T13:23:32.315Z,11.40
2022-09-02T13:26:49.395Z,11.50
2022-09-02T13:29:41.671Z,11.70
2022-09-02T13:32:14.315Z,12.10
2022-09-02T13:34:44.602Z,12.00
2022-09-02T13:37:40.860Z,12.00
2022-09-02T13:40:39.726Z,12.00
2022-09-02T13:43:12.574Z,11.80
2022-09-02T13:45:39.267Z,11.70
2022-09-02T13:48:20.668Z,12.00
2022-09-02T13:51:00.075Z,12.30
2022-09-02T13:53:45.616Z,12.00
2022-09-02T13:56:30.536Z,11.90
2022-09-02T13:58:57.181Z,12.20
2022-09-02T14:01:37.371Z,11.90
2022-09-02T14:04:07.096Z,12.10
2022-09-02T14:06:36.653Z,12.80
2022-09-02T14:09:06.550Z,12.70
2022-09-02T14:11:40.280Z,13.40
2022-09-02T14:14:06.953Z,13.30
2022-09-02T14:16:35.198Z,14.00
2022-09-02T14:19:17.166Z,13.70
2022-09-02T14:21:47.635Z,13.70
2022-09-02T14:24:15.658Z,14.40
2022-09-02T14:26:46.523Z,14.50
2022-09-02T14:29:15.185Z,15.10
2022-09-02T14:31:41.873Z,15.20
2022-09-02T14:34:35.725Z,15.00
2022-09-02T14:37:14.943Z,14.80
2022-09-02T14:40:00.323Z,14.90
2022-09-02T14:42:29.401Z,15.10
2022-09-02T14:44:59.251Z,15.70
2022-09-02T14:47:27.670Z,16.40
2022-09-02T14:49:55.438Z,16.40
2022-09-02T14:52:29.458Z,16.30
2022-09-02T14:54:57.040Z,16.80
2022-09-02T14:57:33.079Z,17.50
2022-09-02T15:00:01.560Z,16.80
2022-09-02T15:02:28.130Z,16.70
2022-09-02T15:04:59.292Z,16.90
2022-09-02T15:07:26.007Z,17.30
2022-09-02T15:09:52.787Z,17.30
2022-09-02T15:12:37.266Z,17.20
2022-09-02T15:15:04.231Z,18.00
2022-09-02T15:17:30.969Z,17.50
2022-09-02T15:19:57.738Z,17.30
2022-09-02T15:22:24.454Z,17.20
2022-09-02T15:24:51.835Z,17.40
2022-09-02T15:27:20.232Z,17.70
2022-09-02T15:29:48.937Z,17.70
2022-09-02T15:32:15.590Z,18.20
2022-09-02T15:34:42.208Z,18.70
2022-09-02T15:37:12.881Z,18.70
2022-09-02T15:39:40.190Z,18.40
2022-09-02T15:42:07.110Z,18.40
2022-09-02T15:44:33.763Z,18.60
2022-09-02T15:47:00.390Z,18.70
2022-09-02T15:49:27.514Z,18.70
2022-09-02T15:51:55.225Z,18.80
2022-09-02T15:54:23.074Z,18.60
2022-09-02T15:56:53.536Z,18.50
2022-09-02T15:59:23.317Z,18.60
2022-09-02T16:01:51.504Z,18.80
2022-09-02T16:04:18.329Z,19.00
2022-09-02T16:06:47.779Z,18.80
2022-09-02T16:09:15.410Z,19.10
2022-09-02T16:11:43.818Z,18.80
2022-09-02T16:14:10.514Z,18.70
2022-09-02T16:16:37.194Z,19.30
2022-09-02T16:19:05.119Z,19.00
2022-09-02T16:21:31.791Z,19.20
2022-09-02T16:23:58.406Z,19.40
2022-09-02T16:26:26.577Z,20.20
2022-09-02T16:28:57.820Z,20.00
2022-09-02T16:31:25.673Z,19.70
2022-09-02T16:34:08.928Z,19.60
2022-09-02T16:36:37.260Z,19.50
2022-09-02T16:39:04.530Z,19.60
2022-09-02T16:41:43.761Z,19.50
2022-09-02T16:44:16.008Z,19.60
2022-09-02T16:46:42.855Z,19.50
2022-09-02T16:49:09.869Z,19.70
2022-09-02T16:51:36.942Z,19.60
2022-09-02T16:54:04.474Z,20.30
2022-09-02T16:56:31.273Z,20.50
2022-09-02T16:59:00.977Z,20.60
2022-09-02T17:01:32.287Z,20.40
2022-09-02T17:04:02.016Z,20.50
2022-09-02T17:06:29.701Z,20.50
2022-09-02T17:08:56.504Z,20.60
2022-09-02T17:11:33.053Z,20.80
2022-09-02T17:14:05.963Z,20.60
2022-09-02T17:16:35.721Z,20.80
2022-09-02T17:19:02.581Z,21.40
2022-09-02T17:21:41.113Z,20.90
2022-09-02T17:24:08.384Z,21.10
2022-09-02T17:26:36.916Z,21.10
2022-09-02T17:29:17.352Z,21.00
2022-09-02T17:31:57.668Z,21.00
2022-09-02T17:34:24.369Z,21.10
2022-09-02T17:36:51.069Z,21.10
2022-09-02T17:39:18.660Z,21.10
2022-09-02T17:41:54.467Z,21.20
2022-09-02T17:44:32.992Z,21.10
2022-09-02T17:46:59.948Z,21.20
2022-09-02T17:49:26.604Z,21.20
2022-09-02T17:51:53.318Z,21.50
2022-09-02T17:54:20.026Z,21.70
2022-09-02T17:57:09.449Z,21.90
2022-09-02T17:59:59.121Z,22.10
2022-09-02T18:03:12.383Z,21.70
2022-09-02T18:05:42.935Z,21.70
2022-09-02T18:08:28.274Z,21.80
2022-09-02T18:10:58.048Z,21.90
2022-09-02T18:13:48.139Z,21.70
2022-09-02T18:16:28.681Z,22.10
2022-09-02T18:19:13.449Z,22.10
2022-09-02T18:21:42.370Z,22.30
2022-09-02T18:24:14.672Z,22.00
2022-09-02T18:27:11.552Z,22.10
2022-09-02T18:29:57.024Z,22.20
2022-09-02T18:32:45.979Z,22.50
2022-09-02T18:35:38.154Z,22.60
2022-09-02T18:38:22.563Z,22.40
2022-09-02T18:41:17.463Z,22.50
2022-09-02T18:44:15.020Z,22.60
2022-09-02T18:46:52.811Z,22.40
2022-09-02T18:49:21.078Z,22.60
2022-09-02T18:51:47.841Z,22.80
2022-09-02T18:54:45.020Z,23.30
2022-09-02T18:57:11.790Z,23.40
2022-09-02T19:00:01.305Z,23.10
2022-09-02T19:02:31.079Z,23.10
2022-09-02T19:04:58.510Z,23.10
2022-09-02T19:07:43.676Z,23.00
2022-09-02T19:10:10.549Z,23.10
2022-09-02T19:12:40.242Z,23.20
2022-09-02T19:15:08.735Z,23.10
2022-09-02T19:17:36.320Z,23.20
2022-09-02T19:20:03.962Z,23.40
2022-09-02T19:22:32.403Z,23.70
2022-09-02T19:25:02.856Z,23.70
2022-09-02T19:27:32.184Z,24.00
2022-09-02T19:30:13.951Z,24.00
2022-09-02T19:32:43.785Z,24.30
2022-09-02T19:35:19.091Z,24.00
2022-09-02T19:37:47.088Z,24.20
2022-09-02T19:40:16.938Z,24.40
2022-09-02T19:42:43.649Z,24.20
2022-09-02T19:45:15.495Z,24.30
2022-09-02T19:50:29.622Z,24.30
2022-09-02T19:52:56.332Z,24.40
2022-09-02T19:55:23.890Z,24.30
2022-09-02T19:57:53.534Z,24.60
2022-09-02T20:00:20.309Z,24.50
2022-09-02T20:02:46.936Z,25.50
2022-09-02T20:05:13.741Z,24.80
2022-09-02T20:07:42.645Z,25.00
2022-09-02T20:10:10.328Z,25.10
2022-09-02T20:12:37.001Z,25.20
2022-09-02T20:15:04.772Z,25.20
2022-09-02T20:17:31.724Z,25.00
2022-09-02T20:20:01.222Z,24.90
2022-09-02T20:22:30.041Z,24.90
2022-09-02T20:24:57.170Z,25.00
2022-09-02T20:27:50.130Z,25.40
2022-09-02T20:30:17.573Z,25.10
2022-09-02T20:33:15.352Z,25.50
2022-09-02T20:35:41.914Z,25.40
2022-09-02T20:38:28.004Z,25.50
2022-09-02T20:41:20.637Z,25.80
2022-09-02T20:43:53.378Z,25.80
2022-09-02T20:46:37.449Z,25.70
2022-09-02T20:49:10.078Z,25.80
2022-09-02T20:52:01.067Z,25.80
2022-09-02T20:54:54.796Z,25.90
2022-09-02T20:57:46.116Z,26.20
2022-09-02T21:00:14.309Z,26.40
2022-09-02T21:03:04.155Z,26.80
2022-09-02T21:05:36.923Z,26.40
2022-09-02T21:08:05.544Z,26.30
2022-09-02T21:10:38.839Z,26.60
2022-09-02T21:13:48.910Z,26.70
2022-09-02T21:16:34.518Z,26.30
2022-09-02T21:19:09.305Z,26.80
2022-09-02T21:21:49.039Z,26.70
2022-09-02T21:24:47.877Z,27.00
2022-09-02T21:27:20.469Z,26.80
2022-09-02T21:30:09.553Z,27.20
2022-09-02T21:32:54.906Z,27.20
2022-09-02T21:35:41.975Z,28.10
2022-09-02T21:38:35.645Z,27.90
2022-09-02T21:41:37.147Z,27.30
2022-09-02T21:44:28.570Z,27.40
2022-09-02T21:47:01.699Z,27.80
2022-09-02T21:49:48.112Z,27.70
2022-09-02T21:52:48.909Z,27.50
2022-09-02T21:55:23.670Z,27.60
2022-09-02T21:58:26.463Z,27.80
2022-09-02T22:01:19.037Z,27.80
2022-09-02T22:03:51.018Z,27.80
2022-09-02T22:06:42.465Z,27.80
2022-09-02T22:09:17.013Z,27.90
2022-09-02T22:12:04.561Z,28.00
2022-09-02T22:14:58.923Z,28.50
2022-09-02T22:17:54.299Z,28.10
2022-09-02T22:20:32.211Z,28.10
2022-09-02T22:23:05.204Z,28.20
2022-09-02T22:25:34.001Z,28.00
2022-09-02T22:28:15.784Z,28.00
2022-09-02T22:30:48.716Z,28.20
2022-09-02T22:33:19.391Z,28.10
2022-09-02T22:35:59.050Z,28.10
2022-09-02T22:38:35.379Z,28.10
2022-09-02T22:41:25.488Z,28.00
2022-09-02T22:44:06.744Z,28.10
2022-09-02T22:47:02.169Z,28.20
2022-09-02T22:49:49.742Z,28.30
2022-09-02T22:52:46.190Z,28.30
2022-09-02T22:55:42.600Z,28.30
2022-09-02T22:58:21.220Z,28.40
2022-09-02T23:00:55.463Z,28.50
2022-09-02T23:03:22.201Z,28.60
2022-09-02T23:06:08.006Z,28.50
2022-09-02T23:08:37.367Z,28.80
2022-09-02T23:11:19.489Z,28.70
2022-09-02T23:14:09.241Z,28.80
2022-09-02T23:16:54.728Z,29.00
2022-09-02T23:23:24.652Z,29.30
2022-09-02T23:26:09.479Z,29.50
2022-09-02T23:29:29.628Z,29.50
2022-09-02T23:32:20.896Z,29.30
2022-09-02T23:35:09.586Z,29.60
2022-09-02T23:37:48.254Z,29.60
2022-09-02T23:40:24.222Z,29.60
2022-09-02T23:42:51.073Z,29.60
2022-09-02T23:45:21.681Z,29.90
2022-09-02T23:48:11.641Z,29.90
2022-09-02T23:50:56.316Z,30.30
2022-09-02T23:53:48.278Z,30.00
2022-09-02T23:56:21.657Z,29.90
2022-09-02T23:59:15.846Z,30.20
